Aviation Digital Data Service (ADDS)

Output produced by METARs form (0535 UTC 01 September 2016)
found at http://aviationweather.gov/adds/metars/
 
KDAG 010450Z AUTO 26019G37KT 10SM CLR 33/01 A2985 RMK AO2 PK WND 27037/0442 SLP075 T03330006
KDAG 010527Z 0106/0206 28010KT P6SM SKC 
     FM012300 25015G25KT P6SM SKC
       
KEDW 010458Z 25010KT 50SM CLR 28/06 A2990 RMK AO2A SLP099 T02750055
TAF KEDW 010200Z 0102/0208 24012G18KT 9999 FEW120 QNH2983INS 
     BECMG 0103/0104 24012KT 9999 SKC QNH2985INS 
     BECMG 0107/0108 VRB06KT 9999 SKC QNH2988INS 
     BECMG 0117/0118 24009KT 9999 SKC QNH2990INS 
     BECMG 0120/0121 24012G18KT 9999 FEW120 QNH2993INS 
     TEMPO 0123/0202 24020G30KT 510009 
     BECMG 0203/0204 24009KT 9999 SKC QNH2991INS TX38/0123Z TN17/0113Z
       
KVCV 010515Z AUTO 00000KT 10SM CLR 28/02 A2997 RMK AO2
KONT 010453Z 28006KT 10SM CLR 24/14 A2988 RMK AO2 SLP099 T02440144
KONT 010520Z 0106/0212 VRB06KT P6SM SKC 
     FM012000 26011KT P6SM FEW100 
     FM020500 VRB05KT P6SM SKC
       
KNID 010456Z 21004KT 10SM CLR 28/03 A2988 RMK AO2 SLP092 T02830028 $
TAF KNID 3123/0123 19018G32KT 9999 FEW110 FEW250 530009 QNH2979INS 
     BECMG 0102/0104 19010G20KT 9999 FEW110 FEW280 520009 QNH2983INS 
     BECMG 0106/0108 19007G15KT 9999 FEW110 FEW280 510009 QNH2985INS 
     BECMG 0112/0114 19007KT 9999 SKC 500000 QNH2985INS 
     BECMG 0119/0121 17018G32 9999 FEW110 FEW280 530009 QNH2982INS T20/0112Z T38/0122Z LAST NO AMD AFT 0105/ NEXT 0115
       
KSNA 010453Z 19005KT 10SM CLR 22/18 A2986 RMK AO2 SLP109 T02170178
KSNA 010520Z 0106/0206 21005KT P6SM SCT007 
     FM011000 VRB05KT 5SM BR OVC005 
     FM011600 22005KT 6SM HZ SCT008 
     FM011900 22010KT P6SM FEW010 
     FM020200 VRB05KT P6SM SCT010
       
KSAN 010500Z 28005KT 10SM SCT009 21/18 A2989 RMK AO2 T02060183
KSAN 010520Z 0106/0212 VRB05KT P6SM SCT009 
     FM010900 VRB04KT 6SM BR BKN008 
     TEMPO 0112/0115 3SM BR BKN005 
     FM011600 VRB05KT P6SM FEW010 
     FM012000 29010KT P6SM FEW012 
     FM020200 VRB05KT P6SM SCT012 
     FM020500 VRB05KT P6SM BKN010
       
KNXP 010456Z AUTO 22014KT 10SM CLR 33/02 A2994 RMK AO2 SLP094 T03280017 PWINO $
TAF KNXP 0103/0203 20010KT 9999 SCT100 QNH2988INS 
     FM010530 VRB06KT 9999 SCT100 QNH2993INS 
     BECMG 0120/0122 18012KT 9999 FEW050 SCT100 QNH2985INS 
     TEMPO 0122/0203 18015G25KT AUTOMATED SENSOR METWATCH 0103 TIL 0115 T26/0113Z T39/0122Z
       
KPSP 010453Z 29006KT 10SM CLR 37/03 A2978 RMK AO2 SLP077 T03720028
KPSP 010520Z 0106/0206 VRB06KT P6SM SKC 
     FM011800 12008KT P6SM FEW100 
     FM020000 32011KT P6SM SCT100
       
KLAX 010453Z 26006KT 9SM CLR 21/17 A2986 RMK AO2 SLP109 T02060167
KLAX 010532Z 0106/0212 25006KT P6SM SKC 
     FM011000 VRB03KT 5SM BR BKN008 
     FM011700 VRB03KT 6SM HZ SCT010 
     FM012000 26012KT P6SM SKC 
     FM020400 25006KT P6SM SCT010 
     FM020900 VRB03KT 5SM BR BKN008
       
KCNO 010453Z 27006KT 8SM CLR 24/17 A2988 RMK AO2 SLP112 T02440167
KSMO 010451Z AUTO 00000KT 10SM CLR 21/17 A2986 RMK AO2 SLP110 T02060167 $
KLGB 010453Z 33004KT 10SM CLR 22/16 A2986 RMK AO2 SLP110 T02220156
KLGB 010532Z 0106/0206 VRB03KT P6SM SKC 
     FM010900 VRB03KT 6SM BR BKN010 
     FM011700 VRB03KT P6SM SCT012 
     FM011900 18007KT P6SM SKC 
     FM020000 28008KT P6SM SKC 
     FM020400 VRB03KT P6SM SKC
       
KVNY 010451Z 08003KT 10SM CLR 24/16 A2986 RMK AO2 SLP102 T02440156
KVNY 010532Z 0106/0206 VRB03KT P6SM SKC 
     FM012000 14009KT P6SM SKC 
     FM020400 VRB03KT P6SM SKC
       
KBUR 010453Z AUTO 00000KT 10SM CLR 23/15 A2986 RMK AO2 SLP099 T02280150 TSNO
KBUR 010532Z 0106/0206 13006KT P6SM SKC 
     FM010800 VRB03KT P6SM SKC 
     FM012000 16009KT P6SM SKC 
     FM020500 VRB03KT P6SM SKC
       
KBFL 010454Z 06004KT 10SM CLR 29/11 A2985 RMK AO2 SLP101 T02940106
KBFL 010520Z 0106/0206 VRB04KT P6SM SKC 
     FM012100 30009KT P6SM SKC 
     FM020300 35005KT P6SM SKC
       
KPMD 010453Z AUTO 29009KT 10SM CLR 27/06 A2995 RMK AO2 SLP109 T02670061
KPMD 010532Z 0106/0206 27007KT P6SM SKC 
     FM010800 VRB03KT P6SM SKC 
     FM011800 24010KT P6SM SKC 
     FM012000 24018G25KT P6SM SKC 
     FM020300 24010KT P6SM SKC
       
KOXR 010451Z AUTO 27006KT 9SM CLR 18/16 A2985 RMK AO2 SLP107 T01780156
KOXR 010532Z 0106/0206 27006KT P6SM SKC 
     FM011100 VRB03KT 3SM BR BKN004 
     FM011600 26007KT P6SM SKC 
     FM011900 26013KT P6SM SKC 
     FM020300 26007KT P6SM SKC
       
KWJF 010456Z 21009KT 10SM CLR 27/09 A2994 RMK AO2 SLP114 T02670089
KWJF 010532Z 0106/0206 23008KT P6SM SKC 
     FM010800 VRB03KT P6SM SKC 
     FM011800 24012KT P6SM SKC 
     FM012000 24018G25KT P6SM SKC 
     FM020300 24010KT P6SM SKC
       
KCMA 010455Z 29003KT 9SM CLR 18/16 A2985 RMK AO2 SLP115 T01830156
KFAT 010453Z 31010KT 10SM CLR 27/11 A2986 RMK AO2 SLP109 T02670106
KFAT 010520Z 0106/0206 31010KT P6SM SKC 
     FM011000 VRB04KT P6SM SKC 
     FM020000 30009KT P6SM SKC
       
KEED 010456Z AUTO 26010KT 10SM CLR 37/11 A2977 RMK AO2 SLP041 T03720111
KEED 010527Z 0106/0206 25007KT P6SM SCT140 
     FM011500 15004KT P6SM SCT140 
     FM011900 20012G20KT P6SM SCT140 
     FM020400 23008KT P6SM FEW140
       
KLSV 010458Z AUTO 13009KT 10SM CLR 35/10 A2982 RMK AO2 SLP069 T03520101 $
TAF KLSV 312300Z 3123/0205 11009KT 9999 FEW120 QNH2979INS 
     TEMPO 3123/0103 11012G18KT 
     BECMG 0102/0103 VRB06KT 9999 SCT100 QNH2980INS 
     BECMG 0120/0121 18015G25KT 9999 FEW100 QNH2979INS 
     BECMG 0201/0203 VRB06KT 9999 FEW150 QNH2980INS TX38/3123Z TN26/0112Z
       
KLAS 010456Z 17007KT 10SM SCT150 SCT200 34/06 A2983 RMK AO2 SLP068 T03440056
KLAS 010527Z 0106/0206 19007KT P6SM SCT150 BKN200 
     FM012000 19014G22KT P6SM SCT140 BKN200 
     FM020300 19010KT P6SM FEW140
       
KHII 010510Z AUTO 10004KT 10SM CLR 37/10 A2976 RMK AO2
KIFP 010515Z AUTO 00000KT 10SM CLR 35/10 A2976 RMK AO2
KIFP 010527Z 0106/0206 15006KT P6SM SCT140 
     FM011600 21009KT P6SM SCT140 
     FM012000 19012G20KT P6SM SCT140 
     FM020400 16008KT P6SM FEW140